KADS/ADS METAR and TAF weather

Enter ICAO airport designator
Station Type Date Time Source
KADS METAR 2020/07/14 21:47 UTC NOAA

KADS 142147Z 15012G20KT 13SM FEW250 37/20 A2985


Station Type Date Time Source
KADS Decoded METAR 2020/07/14 21:47 UTC NOAA

Dallas / Addison Airport, TX, United States (KADS) 32-58N 096-50W
Jul 14, 2020 - 05:47 PM EDT / 2020.07.14 2147 UTC
Wind: from the SSE (150 degrees) at 14 MPH (12 KT) gusting to 23 MPH (20 KT):0
Visibility: 13 mile(s):0
Sky conditions: mostly clear
Temperature: 98 F (37 C)
Heat index: 102.9 F (39.4 C):1
Dew Point: 68 F (20 C)
Relative Humidity: 37%
Pressure (altimeter): 29.85 in. Hg (1010 hPa)
ob: KADS 142147Z 15012G20KT 13SM FEW250 37/20 A2985
cycle: 22

Station Type Date Time Source
KADS TAF UTC NOAA

Error!

Example: see airport list